createdAt,value
2019-02-20T00:00:46.497Z,101080.98
2019-02-20T00:03:18.428Z,101079.66
2019-02-20T00:05:50.145Z,101083.16
2019-02-20T00:08:22.005Z,101082.68
2019-02-20T00:10:54.021Z,101084.83
2019-02-20T00:13:25.365Z,101085.28
2019-02-20T00:15:57.245Z,101078.78
2019-02-20T00:18:29.846Z,101083.10
2019-02-20T00:21:01.578Z,101082.22
2019-02-20T00:23:33.039Z,101088.31
2019-02-20T00:26:04.893Z,101088.28
2019-02-20T00:28:36.534Z,101091.76
2019-02-20T00:31:07.963Z,101098.72
2019-02-20T00:33:41.231Z,101097.35
2019-02-20T00:36:12.720Z,101095.66
2019-02-20T00:38:44.416Z,101102.14
2019-02-20T00:41:15.736Z,101103.02
2019-02-20T00:43:58.001Z,101106.47
2019-02-20T00:46:35.188Z,101100.38
2019-02-20T00:49:23.764Z,101102.98
2019-02-20T00:52:20.882Z,101109.03
2019-02-20T00:54:54.418Z,101106.47
2019-02-20T00:57:26.684Z,101108.64
2019-02-20T00:59:58.708Z,101112.09
2019-02-20T01:02:30.393Z,101102.95
2019-02-20T01:05:03.249Z,101109.95
2019-02-20T01:07:34.865Z,101112.97
2019-02-20T01:10:07.202Z,101110.76
2019-02-20T01:12:38.925Z,101107.70
2019-02-20T01:15:10.970Z,101110.27
2019-02-20T01:17:42.315Z,101112.52
2019-02-20T01:20:13.752Z,101123.31
2019-02-20T01:22:45.547Z,101118.53
2019-02-20T01:25:18.315Z,101119.41
2019-02-20T01:27:51.620Z,101116.81
2019-02-20T01:30:23.337Z,101117.30
2019-02-20T01:32:55.278Z,101117.27
2019-02-20T01:35:26.915Z,101112.06
2019-02-20T01:37:58.424Z,101108.97
2019-02-20T01:40:30.110Z,101107.25
2019-02-20T01:43:01.756Z,101102.92
2019-02-20T01:45:33.503Z,101102.01
2019-02-20T01:48:04.822Z,101100.73
2019-02-20T01:50:36.515Z,101098.11
2019-02-20T01:53:10.315Z,101099.34
2019-02-20T01:55:41.534Z,101102.39
2019-02-20T01:58:12.871Z,101106.30
2019-02-20T02:00:44.251Z,101106.76
2019-02-20T02:03:15.612Z,101108.02
2019-02-20T02:05:46.988Z,101105.81
2019-02-20T02:08:18.699Z,101103.67
2019-02-20T02:10:50.351Z,101103.27
2019-02-20T02:13:22.981Z,101097.16
2019-02-20T02:15:54.673Z,101092.38
2019-02-20T02:18:29.537Z,101091.95
2019-02-20T02:21:01.712Z,101094.56
2019-02-20T02:23:33.089Z,101099.27
2019-02-20T02:26:10.675Z,101094.03
2019-02-20T02:28:37.769Z,101098.39
2019-02-20T02:31:12.460Z,101096.21
2019-02-20T02:33:43.917Z,101099.23
2019-02-20T02:36:15.655Z,101104.86
2019-02-20T02:38:47.067Z,101102.72
2019-02-20T02:41:19.147Z,101101.87
2019-02-20T02:43:50.871Z,101091.47
2019-02-20T02:46:22.508Z,101092.34
2019-02-20T02:48:53.853Z,101084.12
2019-02-20T02:51:25.172Z,101091.43
2019-02-20T02:53:56.604Z,101092.28
2019-02-20T02:56:27.949Z,101103.07
2019-02-20T02:58:59.344Z,101093.09
2019-02-20T03:01:31.034Z,101091.68
2019-02-20T03:04:02.654Z,101093.79
2019-02-20T03:06:34.031Z,101089.39
2019-02-20T03:09:06.333Z,101099.30
2019-02-20T03:11:37.719Z,101104.05
2019-02-20T03:14:09.124Z,101114.83
2019-02-20T03:16:41.122Z,101116.58
2019-02-20T03:19:12.457Z,101116.51
2019-02-20T03:21:44.101Z,101114.75
2019-02-20T03:24:15.916Z,101113.87
2019-02-20T03:26:47.253Z,101113.45
2019-02-20T03:29:19.052Z,101113.11
2019-02-20T03:31:50.880Z,101117.39
2019-02-20T03:34:22.623Z,101126.95
2019-02-20T03:36:54.929Z,101121.33
2019-02-20T03:39:26.665Z,101119.15
2019-02-20T03:41:58.432Z,101113.95
2019-02-20T03:44:30.805Z,101117.92
2019-02-20T03:47:02.240Z,101124.00
2019-02-20T03:49:33.753Z,101124.81
2019-02-20T03:52:05.108Z,101124.81
2019-02-20T03:54:36.809Z,101126.11
2019-02-20T03:57:08.128Z,101136.01
2019-02-20T03:59:40.708Z,101128.17
2019-02-20T04:02:12.767Z,101132.02
2019-02-20T04:04:44.420Z,101122.88
2019-02-20T04:07:16.365Z,101124.69
2019-02-20T04:09:48.269Z,101128.09
2019-02-20T04:12:19.897Z,101119.78
2019-02-20T04:14:51.236Z,101125.02
2019-02-20T04:17:23.321Z,101130.27
2019-02-20T04:19:54.635Z,101128.13
2019-02-20T04:22:25.953Z,101123.73
2019-02-20T04:24:57.969Z,101123.27
2019-02-20T04:27:29.732Z,101120.20
2019-02-20T04:30:01.096Z,101115.92
2019-02-20T04:32:32.876Z,101111.56
2019-02-20T04:35:04.546Z,101110.27
2019-02-20T04:37:36.582Z,101100.29
2019-02-20T04:40:08.158Z,101104.14
2019-02-20T04:42:39.473Z,101118.41
2019-02-20T04:45:11.325Z,101118.36
2019-02-20T04:47:42.839Z,101118.81
2019-02-20T04:50:14.464Z,101121.80
2019-02-20T04:52:45.797Z,101130.47
2019-02-20T04:55:17.266Z,101123.89
2019-02-20T04:58:07.048Z,101126.08
2019-02-20T05:00:38.485Z,101121.30
2019-02-20T05:03:11.109Z,101128.30
2019-02-20T05:05:42.550Z,101130.39
2019-02-20T05:08:13.865Z,101124.31
2019-02-20T05:10:45.534Z,101130.35
2019-02-20T05:13:17.921Z,101129.47
2019-02-20T05:15:49.248Z,101126.82
2019-02-20T05:18:21.138Z,101125.98
2019-02-20T05:20:52.579Z,101124.73
2019-02-20T05:23:23.926Z,101126.41
2019-02-20T05:25:55.642Z,101135.50
2019-02-20T05:28:27.036Z,101129.42
2019-02-20T05:30:58.418Z,101127.70
2019-02-20T05:33:29.761Z,101123.39
2019-02-20T05:36:01.887Z,101132.44
2019-02-20T05:38:34.037Z,101134.20
2019-02-20T05:41:05.741Z,101131.97
2019-02-20T05:43:37.748Z,101134.16
2019-02-20T05:46:09.361Z,101134.57
2019-02-20T05:48:41.548Z,101138.93
2019-02-20T05:51:12.934Z,101133.73
2019-02-20T05:53:44.279Z,101132.81
2019-02-20T05:56:15.904Z,101136.29
2019-02-20T05:58:47.312Z,101140.23
2019-02-20T06:01:18.754Z,101144.50
2019-02-20T06:03:50.728Z,101145.80
2019-02-20T06:06:22.128Z,101149.28
2019-02-20T06:08:53.831Z,101160.51
2019-02-20T06:11:26.004Z,101161.81
2019-02-20T06:13:57.624Z,101158.80
2019-02-20T06:16:29.001Z,101163.99
2019-02-20T06:19:00.716Z,101160.60
2019-02-20T06:21:32.272Z,101163.16
2019-02-20T06:24:03.949Z,101159.72
2019-02-20T06:26:35.353Z,101162.31
2019-02-20T06:29:06.790Z,101169.70
2019-02-20T06:31:38.627Z,101169.23
2019-02-20T06:34:10.274Z,101180.59
2019-02-20T06:36:41.655Z,101177.95
2019-02-20T06:39:13.010Z,101178.05
2019-02-20T06:41:44.643Z,101178.43
2019-02-20T06:44:16.046Z,101190.13
2019-02-20T06:46:47.377Z,101188.88
2019-02-20T06:49:19.022Z,101194.06
2019-02-20T06:51:50.899Z,101193.69
2019-02-20T06:54:22.688Z,101193.69
2019-02-20T06:56:55.038Z,101194.56
2019-02-20T06:59:26.825Z,101204.59
2019-02-20T07:01:58.542Z,101203.76
2019-02-20T07:04:30.272Z,101208.96
2019-02-20T07:07:28.198Z,101213.33
2019-02-20T07:10:52.142Z,101217.27
2019-02-20T07:13:42.786Z,101210.86
2019-02-20T07:17:00.324Z,101217.41
2019-02-20T07:19:56.595Z,101221.31
2019-02-20T07:23:15.866Z,101222.69
2019-02-20T07:26:44.588Z,101225.29
2019-02-20T07:29:45.471Z,101231.84
2019-02-20T07:32:18.720Z,101228.86
2019-02-20T07:34:49.994Z,101228.45
2019-02-20T07:37:22.197Z,101239.31
2019-02-20T07:39:53.525Z,101243.22
2019-02-20T07:42:25.061Z,101246.36
2019-02-20T07:44:56.838Z,101252.45
2019-02-20T07:47:28.914Z,101249.89
2019-02-20T07:50:00.373Z,101256.47
2019-02-20T07:52:31.967Z,101260.41
2019-02-20T07:55:12.626Z,101257.02
2019-02-20T07:57:38.184Z,101262.30
2019-02-20T08:00:12.043Z,101270.53
2019-02-20T08:02:43.502Z,101273.22
2019-02-20T08:05:15.028Z,101281.56
2019-02-20T08:07:46.340Z,101282.91
2019-02-20T08:10:18.056Z,101285.59
2019-02-20T08:12:49.376Z,101286.97
2019-02-20T08:15:21.140Z,101290.92
2019-02-20T08:17:52.500Z,101291.34
2019-02-20T08:20:24.165Z,101291.37
2019-02-20T08:22:55.859Z,101293.18
2019-02-20T08:25:27.627Z,101291.45
2019-02-20T08:27:59.179Z,101299.38
2019-02-20T08:30:30.728Z,101297.63
2019-02-20T08:33:02.448Z,101299.91
2019-02-20T08:35:33.791Z,101305.16
2019-02-20T08:38:05.115Z,101303.52
2019-02-20T08:40:36.900Z,101304.01
2019-02-20T08:43:08.959Z,101306.61
2019-02-20T08:45:40.164Z,101303.16
2019-02-20T08:48:12.117Z,101306.69
2019-02-20T08:50:43.723Z,101306.75
2019-02-20T08:53:15.707Z,101315.98
2019-02-20T08:55:47.431Z,101322.49
2019-02-20T08:58:18.845Z,101330.80
2019-02-20T09:00:50.127Z,101328.65
2019-02-20T09:03:21.506Z,101330.48
2019-02-20T09:05:52.854Z,101338.78
2019-02-20T09:08:24.139Z,101343.73
2019-02-20T09:10:55.788Z,101337.31
2019-02-20T09:13:27.471Z,101338.52
2019-02-20T09:16:01.082Z,101348.70
2019-02-20T09:18:35.767Z,101349.59
2019-02-20T09:21:07.308Z,101347.52
2019-02-20T09:23:39.190Z,101351.34
2019-02-20T09:26:11.232Z,101352.77
2019-02-20T09:28:43.365Z,101364.50
2019-02-20T09:31:15.301Z,101362.48
2019-02-20T09:33:46.785Z,101364.30
2019-02-20T09:36:18.728Z,101362.11
2019-02-20T09:38:51.106Z,101355.94
2019-02-20T09:41:23.614Z,101361.69
2019-02-20T09:43:55.517Z,101360.48
2019-02-20T09:46:26.799Z,101366.95
2019-02-20T09:48:59.107Z,101372.30
2019-02-20T09:51:30.423Z,101372.84
2019-02-20T09:54:02.052Z,101368.98
2019-02-20T09:56:33.859Z,101379.47
2019-02-20T09:59:05.192Z,101386.14
2019-02-20T10:01:36.519Z,101378.73
2019-02-20T10:04:08.339Z,101382.32
2019-02-20T10:06:39.616Z,101384.91
2019-02-20T10:09:11.259Z,101381.48
2019-02-20T10:11:43.001Z,101376.27
2019-02-20T10:14:14.617Z,101385.06
2019-02-20T10:16:45.925Z,101386.05
2019-02-20T10:19:17.906Z,101384.34
2019-02-20T10:21:49.599Z,101386.09
2019-02-20T10:24:21.566Z,101390.94
2019-02-20T10:27:00.463Z,101396.19
2019-02-20T10:29:26.299Z,101394.07
2019-02-20T10:31:58.109Z,101402.84
2019-02-20T10:34:29.623Z,101406.79
2019-02-20T10:37:00.965Z,101406.79
2019-02-20T10:39:32.533Z,101409.42
2019-02-20T10:42:04.572Z,101406.80
2019-02-20T10:44:36.502Z,101403.73
2019-02-20T10:47:07.793Z,101403.77
2019-02-20T10:49:39.175Z,101412.48
2019-02-20T10:52:10.794Z,101415.53
2019-02-20T10:54:42.413Z,101415.95
2019-02-20T10:57:13.746Z,101425.09
2019-02-20T10:59:45.317Z,101421.59
2019-02-20T11:02:17.646Z,101418.49
2019-02-20T11:04:50.182Z,101427.73
2019-02-20T11:07:21.838Z,101422.90
2019-02-20T11:09:53.436Z,101425.52
2019-02-20T11:12:25.981Z,101438.12
2019-02-20T11:14:57.727Z,101430.68
2019-02-20T11:17:30.365Z,101420.55
2019-02-20T11:20:02.244Z,101425.30
2019-02-20T11:22:34.262Z,101424.45
2019-02-20T11:25:06.640Z,101427.57
2019-02-20T11:27:39.565Z,101431.23
2019-02-20T11:30:15.840Z,101430.41
2019-02-20T11:32:47.558Z,101426.81
2019-02-20T11:35:19.648Z,101426.89
2019-02-20T11:37:50.931Z,101432.59
2019-02-20T11:40:22.623Z,101422.70
2019-02-20T11:42:54.280Z,101434.38
2019-02-20T11:45:25.999Z,101423.33
2019-02-20T11:47:57.604Z,101425.72
2019-02-20T11:50:29.565Z,101426.35
2019-02-20T11:53:01.204Z,101425.86
2019-02-20T11:55:32.586Z,101417.13
2019-02-20T11:58:04.080Z,101423.79
2019-02-20T12:00:36.574Z,101428.02
2019-02-20T12:03:08.390Z,101429.70
2019-02-20T12:05:40.018Z,101422.14
2019-02-20T12:08:11.310Z,101415.65
2019-02-20T12:10:43.395Z,101421.97
2019-02-20T12:13:14.969Z,101421.72
2019-02-20T12:15:46.304Z,101415.22
2019-02-20T12:18:18.235Z,101411.62
2019-02-20T12:20:49.579Z,101416.54
2019-02-20T12:23:21.365Z,101413.98
2019-02-20T12:25:54.349Z,101411.78
2019-02-20T12:28:28.187Z,101409.16
2019-02-20T12:31:00.557Z,101413.78
2019-02-20T12:33:31.910Z,101416.16
2019-02-20T12:36:04.326Z,101420.92
2019-02-20T12:38:37.225Z,101415.97
2019-02-20T12:41:08.695Z,101411.06
2019-02-20T12:43:40.038Z,101416.24
2019-02-20T12:46:11.320Z,101411.68
2019-02-20T12:48:43.276Z,101405.19
2019-02-20T12:51:15.397Z,101404.41
2019-02-20T12:53:46.724Z,101410.02
2019-02-20T12:56:18.361Z,101408.23
2019-02-20T12:58:49.833Z,101406.42
2019-02-20T13:01:21.601Z,101405.63
2019-02-20T13:03:52.975Z,101408.95
2019-02-20T13:06:24.306Z,101401.90
2019-02-20T13:08:56.607Z,101408.74
2019-02-20T13:11:27.876Z,101406.42
2019-02-20T13:13:59.171Z,101401.14
2019-02-20T13:16:30.483Z,101402.73
2019-02-20T13:19:02.104Z,101403.69
2019-02-20T13:21:33.844Z,101406.79
2019-02-20T13:24:05.232Z,101397.97
2019-02-20T13:26:36.799Z,101394.98
2019-02-20T13:29:08.524Z,101395.56
2019-02-20T13:31:39.837Z,101403.92
2019-02-20T13:34:11.709Z,101390.69
2019-02-20T13:36:43.001Z,101391.06
2019-02-20T13:39:14.562Z,101386.23
2019-02-20T13:41:46.805Z,101390.14
2019-02-20T13:44:19.198Z,101386.61
2019-02-20T13:46:50.502Z,101383.17
2019-02-20T13:49:22.462Z,101379.17
2019-02-20T13:51:54.091Z,101379.20
2019-02-20T13:54:25.787Z,101381.36
2019-02-20T13:57:01.860Z,101388.66
2019-02-20T13:59:30.503Z,101390.55
2019-02-20T14:02:01.895Z,101401.59
2019-02-20T14:04:33.500Z,101403.34
2019-02-20T14:07:04.873Z,101399.56
2019-02-20T14:09:36.181Z,101397.94
2019-02-20T14:12:07.483Z,101402.63
2019-02-20T14:14:39.405Z,101409.19
2019-02-20T14:17:10.753Z,101403.06
2019-02-20T14:19:42.351Z,101401.73
2019-02-20T14:22:13.691Z,101400.95
2019-02-20T14:24:46.061Z,101399.22
2019-02-20T14:27:17.824Z,101398.40
2019-02-20T14:29:49.167Z,101393.98
2019-02-20T14:32:20.807Z,101397.03
2019-02-20T14:34:52.407Z,101392.63
2019-02-20T14:37:23.762Z,101394.44
2019-02-20T14:39:55.028Z,101396.27
2019-02-20T14:42:26.620Z,101394.97
2019-02-20T14:44:58.049Z,101394.09
2019-02-20T14:47:29.428Z,101401.89
2019-02-20T14:50:01.010Z,101400.17
2019-02-20T14:52:32.380Z,101397.98
2019-02-20T14:55:04.099Z,101395.40
2019-02-20T14:57:35.970Z,101399.34
2019-02-20T15:00:08.327Z,101397.58
2019-02-20T15:02:39.703Z,101402.83
2019-02-20T15:05:12.152Z,101398.50
2019-02-20T15:07:44.151Z,101397.58
2019-02-20T15:10:15.543Z,101407.23
2019-02-20T15:12:46.895Z,101414.20
2019-02-20T15:15:19.236Z,101418.57
2019-02-20T15:17:50.812Z,101410.27
2019-02-20T15:20:22.741Z,101417.28
2019-02-20T15:22:54.394Z,101415.98
2019-02-20T15:25:26.849Z,101416.41
2019-02-20T15:27:58.164Z,101419.47
2019-02-20T15:30:29.497Z,101422.09
2019-02-20T15:33:01.374Z,101418.14
2019-02-20T15:35:32.733Z,101422.95
2019-02-20T15:38:05.200Z,101421.64
2019-02-20T15:40:36.505Z,101426.86
2019-02-20T15:43:08.375Z,101417.70
2019-02-20T15:45:40.003Z,101425.11
2019-02-20T15:48:11.368Z,101418.12
2019-02-20T15:50:42.680Z,101425.10
2019-02-20T15:53:14.189Z,101421.62
2019-02-20T15:55:45.566Z,101420.74
2019-02-20T15:58:17.237Z,101422.03
2019-02-20T16:00:48.604Z,101425.09
2019-02-20T16:03:19.933Z,101422.91
2019-02-20T16:05:51.227Z,101425.95
2019-02-20T16:08:23.454Z,101430.33
2019-02-20T16:10:55.318Z,101428.11
2019-02-20T16:19:39.852Z,101440.73
2019-02-20T16:22:11.117Z,101431.55
2019-02-20T16:24:42.670Z,101439.83
2019-02-20T16:27:15.397Z,101445.05
2019-02-20T16:29:47.038Z,101451.55
2019-02-20T16:32:18.626Z,101450.23
2019-02-20T16:34:49.958Z,101456.33
2019-02-20T16:37:21.771Z,101451.07
2019-02-20T16:39:53.814Z,101452.81
2019-02-20T16:42:25.878Z,101450.59
2019-02-20T16:44:57.785Z,101459.33
2019-02-20T16:47:29.892Z,101454.97
2019-02-20T16:50:01.503Z,101461.91
2019-02-20T16:52:33.328Z,101456.67
2019-02-20T16:55:05.014Z,101464.08
2019-02-20T16:57:36.435Z,101466.17
2019-02-20T17:00:08.342Z,101466.17
2019-02-20T17:02:39.640Z,101478.36
2019-02-20T17:05:14.222Z,101477.48
2019-02-20T17:07:45.211Z,101473.55
2019-02-20T17:10:17.107Z,101477.00
2019-02-20T17:12:50.383Z,101480.43
2019-02-20T17:15:21.893Z,101478.66
2019-02-20T17:17:53.425Z,101480.39
2019-02-20T17:20:24.722Z,101485.19
2019-02-20T17:22:56.456Z,101495.17
2019-02-20T17:25:28.757Z,101491.23
2019-02-20T17:28:05.813Z,101495.11
2019-02-20T17:30:32.988Z,101504.67
2019-02-20T17:33:04.254Z,101506.84
2019-02-20T17:35:35.645Z,101503.33
2019-02-20T17:38:06.997Z,101506.39
2019-02-20T17:40:38.262Z,101503.30
2019-02-20T17:43:09.990Z,101507.65
2019-02-20T17:45:41.548Z,101512.85
2019-02-20T17:48:12.843Z,101508.02
2019-02-20T17:50:44.187Z,101509.76
2019-02-20T17:53:15.448Z,101511.89
2019-02-20T17:55:46.996Z,101510.98
2019-02-20T17:58:18.656Z,101509.62
2019-02-20T18:00:50.240Z,101517.00
2019-02-20T18:03:21.789Z,101513.91
2019-02-20T18:05:53.100Z,101512.61
2019-02-20T18:08:24.800Z,101515.61
2019-02-20T18:10:56.081Z,101526.05
2019-02-20T18:13:27.410Z,101522.98
2019-02-20T18:15:59.019Z,101518.20
2019-02-20T18:18:31.442Z,101521.20
2019-02-20T18:21:02.783Z,101522.94
2019-02-20T18:23:34.516Z,101527.27
2019-02-20T18:26:05.918Z,101523.36
2019-02-20T18:28:37.882Z,101524.17
2019-02-20T18:31:10.656Z,101532.47
2019-02-20T18:33:42.734Z,101527.64
2019-02-20T18:36:14.337Z,101528.94
2019-02-20T18:38:45.930Z,101527.67
2019-02-20T18:41:17.609Z,101528.48
2019-02-20T18:43:49.377Z,101528.45
2019-02-20T18:46:21.081Z,101524.11
2019-02-20T18:48:52.756Z,101526.70
2019-02-20T18:51:24.121Z,101533.64
2019-02-20T18:53:55.712Z,101529.73
2019-02-20T18:56:26.939Z,101523.62
2019-02-20T18:58:58.763Z,101528.39
2019-02-20T19:01:30.338Z,101533.19
2019-02-20T19:04:02.325Z,101531.00
2019-02-20T19:06:33.744Z,101533.19
2019-02-20T19:09:20.162Z,101528.81
2019-02-20T19:13:11.425Z,101529.17
2019-02-20T19:16:18.779Z,101535.28
2019-02-20T19:19:32.366Z,101539.16
2019-02-20T19:22:42.122Z,101533.91
2019-02-20T19:26:23.638Z,101535.20
2019-02-20T19:30:03.977Z,101538.24
2019-02-20T19:33:56.670Z,101546.92
2019-02-20T19:37:24.190Z,101540.36
2019-02-20T19:40:53.813Z,101546.88
2019-02-20T19:44:36.594Z,101552.06
2019-02-20T19:48:16.074Z,101552.98
2019-02-20T19:51:10.335Z,101548.61
2019-02-20T19:54:28.940Z,101552.10
2019-02-20T19:57:56.149Z,101551.61
2019-02-20T20:01:02.627Z,101550.30
2019-02-20T20:04:04.019Z,101548.16
2019-02-20T20:07:39.625Z,101548.97
2019-02-20T20:10:49.931Z,101545.09
2019-02-20T20:13:52.628Z,101540.75
2019-02-20T20:17:14.408Z,101540.72
2019-02-20T20:21:08.926Z,101539.41
2019-02-20T20:24:51.688Z,101547.66
2019-02-20T20:28:12.340Z,101547.23
2019-02-20T20:31:18.863Z,101548.92
2019-02-20T20:34:45.480Z,101546.32
2019-02-20T20:38:24.742Z,101542.37
2019-02-20T20:41:58.118Z,101538.87
2019-02-20T20:45:15.387Z,101542.37
2019-02-20T20:48:56.553Z,101543.22
2019-02-20T20:52:38.928Z,101542.75
2019-02-20T20:56:01.356Z,101540.08
2019-02-20T20:59:26.386Z,101541.38
2019-02-20T21:02:43.346Z,101545.29
2019-02-20T21:06:35.324Z,101543.48
2019-02-20T21:09:40.042Z,101543.03
2019-02-20T21:13:01.719Z,101539.08
2019-02-20T21:16:17.578Z,101538.20
2019-02-20T21:20:07.079Z,101536.44
2019-02-20T21:23:22.154Z,101536.43
2019-02-20T21:26:34.691Z,101538.12
2019-02-20T21:29:55.257Z,101528.99
2019-02-20T21:33:19.970Z,101531.98
2019-02-20T21:36:26.237Z,101531.52
2019-02-20T21:39:50.389Z,101525.42
2019-02-20T21:43:31.801Z,101534.09
2019-02-20T21:46:37.167Z,101531.02
2019-02-20T21:49:44.225Z,101535.77
2019-02-20T21:53:29.696Z,101537.42
2019-02-20T21:56:58.622Z,101541.37
2019-02-20T22:00:20.931Z,101540.06
2019-02-20T22:04:04.128Z,101540.48
2019-02-20T22:07:09.966Z,101539.60
2019-02-20T22:10:27.872Z,101549.61
2019-02-20T22:14:01.537Z,101546.16
2019-02-20T22:17:35.376Z,101549.19
2019-02-20T22:21:27.946Z,101547.09
2019-02-20T22:25:09.362Z,101547.50
2019-02-20T22:28:48.316Z,101542.72
2019-02-20T22:32:13.452Z,101546.20
2019-02-20T22:35:30.566Z,101541.91
2019-02-20T22:39:31.886Z,101537.92
2019-02-20T22:42:42.974Z,101541.41
2019-02-20T22:46:05.796Z,101538.68
2019-02-20T22:49:20.564Z,101544.70
2019-02-20T22:52:23.626Z,101548.60
2019-02-20T22:56:00.434Z,101547.25
2019-02-20T22:59:29.733Z,101555.83
2019-02-20T23:02:47.545Z,101551.50
2019-02-20T23:06:46.092Z,101555.79
2019-02-20T23:09:54.948Z,101557.17
2019-02-20T23:13:25.962Z,101569.78
2019-02-20T23:15:57.576Z,101564.58
2019-02-20T23:18:30.064Z,101559.70
2019-02-20T23:21:01.394Z,101558.44
2019-02-20T23:23:33.008Z,101562.80
2019-02-20T23:26:04.887Z,101564.98
2019-02-20T23:28:36.194Z,101567.13
2019-02-20T23:31:07.774Z,101568.91
2019-02-20T23:33:39.399Z,101570.62
2019-02-20T23:36:10.699Z,101566.77
2019-02-20T23:38:42.586Z,101570.20
2019-02-20T23:41:14.226Z,101569.31
2019-02-20T23:43:45.988Z,101566.67
2019-02-20T23:46:17.272Z,101560.62
2019-02-20T23:48:48.550Z,101562.30
2019-02-20T23:51:20.230Z,101564.02
2019-02-20T23:53:53.062Z,101567.92
2019-02-20T23:56:24.270Z,101567.47
2019-02-20T23:58:55.571Z,101566.07
